Airfield :
LOGIN :

Register | Disclaimer

   EN    FR    IT 

 










Legend :    VFR   Marginal VFR   IFR   Intensive IFR   Very Intensive IFR
Visi :
Ceiling :
>= 8 km
>= 3000ft
5 to 8 km
1000 to 3000 ft
1500m to 5 km
500 to 1000 ft
800 to 1500m
200 to 500 ft
< 800m
< 200 ft
Symbols :   Thunderstorms  Fog  Heavy snow  Heavy precipitations  Wind > 20 kt
SIGMETs :     Misc.  Thunderstorms  Icing  Turbulence  Mountain Waves  Volcanic Ashes







- Airport Elevation : 755 ft
- IATA code : KSC


LZKZ - Kosice

CURRENT METAR :
  • 121330Z 25004KT 220V280 9999 OVC033 07/05 Q1009 NOSIG

EXPIRED METARs :
  • 121300Z 18004KT 9999 OVC044 08/05 Q1009 NOSIG
  • 121230Z 21005KT 9999 FEW018 BKN050 08/05 Q1008 NOSIG
  • 121200Z 21003KT 170V250 9999 FEW018 BKN055 08/05 Q1008 NOSIG
  • 121130Z 18004KT 140V210 9999 FEW018 BKN052 08/05 Q1008 NOSIG
  • 121100Z VRB02KT 9999 FEW018 BKN055 07/05 Q1008 NOSIG

TAF TAF LZKZ
Valid from the 12 at 12:00 until the 13 at 12:00 UTC


121100Z 1212/1312 22005KT 9999 FEW020 OVC050
TEMPO 1212/1215 -RA
BECMG 1220/1222 6000 -RA SCT012 OVC035
BECMG 1300/1302 02010KT
TEMPO 1300/1308 01013G23KT 2000 RASN SCT008 OVC020
BECMG 1310/1312 01007KT 9999 NSW SCT030 BKN050
No reported NOTAMs for that airfield.



MET'MAP, your aeronautical weather chart ! - Copyright ORBIFLY December 2007 - Disclaimer

ORBIFLY MET'MAP TEAM :

Programming & Development : Alexandra Zaïnal
Concept & Development : Baudouin d'Aumeries
Co-Development & Prog : Marc-Olivier Méhu
Technical & hardware support : Manuel Goepfert

Contact : metmap@orbifly.com




SOURCES & CREDITS :

   NOAA